Time;durP1;ratioP1;P1;durP2;ratioP2;P2;SDS_P1;SDS_P2;PMS_P1;PMS_P2;Temp;Humidity;BMP_temperature;BMP_pressure;BME280_temperature;BME280_humidity;BME280_pressure;Samples;Min_cycle;Max_cycle;Signal;HPM_P1;HPM_P2
2023/08/17 00:02:13;;;;;;;5.65;2.67;;;;;;;29.99;48.08;96623.34;5021830;28;20034;-28
2023/08/17 00:04:39;;;;;;;4.88;3.05;;;;;;;29.83;48.28;96632.19;5023643;28;20095;-29
2023/08/17 00:07:05;;;;;;;4.75;2.58;;;;;;;29.92;48.29;96626.09;5019529;28;20466;-29
2023/08/17 00:09:31;;;;;;;4.90;2.63;;;;;;;29.78;48.81;96630.31;5022093;28;20040;-28
2023/08/17 00:11:56;;;;;;;6.93;2.80;;;;;;;29.87;48.32;96627.75;5023918;28;20018;-29
2023/08/17 00:14:22;;;;;;;5.07;2.75;;;;;;;29.84;48.18;96634.44;5025431;28;20594;-29
2023/08/17 00:16:50;;;;;;;3.83;2.47;;;;;;;29.79;48.35;96631.81;5023548;28;20022;-29
2023/08/17 00:19:15;;;;;;;4.47;2.83;;;;;;;29.85;48.49;96624.00;5023722;28;20079;-29
2023/08/17 00:21:41;;;;;;;3.45;2.63;;;;;;;29.87;48.24;96627.75;5023287;28;20033;-28
2023/08/17 00:24:07;;;;;;;5.25;2.60;;;;;;;29.72;48.50;96621.31;5018326;28;20415;-29
2023/08/17 00:26:32;;;;;;;6.20;2.80;;;;;;;29.77;48.23;96623.22;5025062;28;20030;-29
2023/08/17 00:28:58;;;;;;;5.47;2.50;;;;;;;29.79;48.35;96629.75;5014897;28;20112;-29
2023/08/17 00:31:23;;;;;;;3.53;2.60;;;;;;;29.75;48.26;96628.59;5024608;28;20108;-29
2023/08/17 00:33:48;;;;;;;2.90;2.15;;;;;;;29.69;48.58;96628.00;5016304;28;20061;-29
2023/08/17 00:36:14;;;;;;;5.72;2.95;;;;;;;29.76;48.44;96630.84;5022130;28;20157;-30
2023/08/17 00:38:40;;;;;;;3.53;2.65;;;;;;;29.85;48.08;96635.94;5027877;28;20030;-28
2023/08/17 00:41:06;;;;;;;4.45;3.10;;;;;;;29.70;48.45;96624.66;5016771;28;20022;-29
2023/08/17 00:43:31;;;;;;;3.10;2.83;;;;;;;29.58;48.83;96624.22;5020063;28;20067;-29
2023/08/17 00:45:57;;;;;;;5.53;2.88;;;;;;;29.57;49.05;96616.38;5019355;28;20056;-28
2023/08/17 00:48:23;;;;;;;3.72;2.75;;;;;;;29.94;47.99;96620.69;5023533;28;20124;-29
2023/08/17 00:50:50;;;;;;;5.15;2.45;;;;;;;29.81;48.15;96620.78;5024555;28;20497;-29
2023/08/17 00:53:16;;;;;;;3.58;2.65;;;;;;;29.78;48.67;96619.88;5023449;28;20418;-29
2023/08/17 00:55:42;;;;;;;3.80;3.00;;;;;;;29.70;48.80;96612.72;5020744;28;20057;-30
2023/08/17 00:58:08;;;;;;;3.15;2.85;;;;;;;29.53;49.27;96610.41;5020785;28;20053;-29
2023/08/17 01:00:34;;;;;;;4.25;3.35;;;;;;;29.50;49.51;96614.28;5021392;28;20081;-29
2023/08/17 01:03:00;;;;;;;6.90;3.97;;;;;;;29.57;49.50;96611.53;5020795;28;20032;-30
2023/08/17 01:05:25;;;;;;;8.57;3.40;;;;;;;29.53;49.73;96611.16;5021265;28;20026;-30
2023/08/17 01:07:51;;;;;;;8.48;3.00;;;;;;;29.62;49.41;96615.47;5020534;28;20026;-29
2023/08/17 01:10:17;;;;;;;4.82;3.05;;;;;;;29.47;50.12;96595.81;5014203;28;20024;-28
2023/08/17 01:13:03;;;;;;;5.78;2.88;;;;;;;29.62;49.73;96607.09;5022853;28;20481;-29
2023/08/17 01:15:33;;;;;;;6.10;2.97;;;;;;;29.76;49.02;96596.56;5016022;28;20038;-30
2023/08/17 01:18:25;;;;;;;6.05;3.10;;;;;;;29.53;50.03;96604.81;5020818;28;20030;-29
2023/08/17 01:20:52;;;;;;;3.35;2.97;;;;;;;29.59;49.55;96602.59;5016566;28;20065;-28
2023/08/17 01:23:18;;;;;;;4.65;3.22;;;;;;;29.76;49.22;96590.97;5019213;28;20025;-29
2023/08/17 01:25:44;;;;;;;4.72;3.05;;;;;;;29.75;49.26;96590.22;5015100;28;20028;-31
2023/08/17 01:28:09;;;;;;;3.70;3.28;;;;;;;29.70;49.68;96595.94;5020069;28;20021;-30
2023/08/17 01:30:58;;;;;;;3.83;3.17;;;;;;;29.51;49.97;96593.44;5013786;28;20017;-29
2023/08/17 01:34:05;;;;;;;5.60;3.47;;;;;;;29.56;50.14;96592.53;5013747;28;20021;-29
2023/08/17 01:36:43;;;;;;;3.83;3.20;;;;;;;29.62;49.94;96579.91;5021090;28;20045;-29
2023/08/17 01:39:10;;;;;;;5.80;3.88;;;;;;;29.74;49.51;96582.38;5015089;28;20080;-29
2023/08/17 01:41:38;;;;;;;4.20;3.38;;;;;;;29.61;49.89;96589.59;5025525;28;20425;-29
2023/08/17 01:44:04;;;;;;;4.88;3.63;;;;;;;29.71;49.79;96580.69;5021157;28;20026;-29
2023/08/17 01:46:34;;;;;;;5.53;3.47;;;;;;;29.74;49.41;96585.19;5019620;28;20032;-30
2023/08/17 01:49:00;;;;;;;4.45;2.97;;;;;;;29.57;49.90;96588.44;5020690;28;20548;-29
2023/08/17 01:51:25;;;;;;;4.63;4.07;;;;;;;29.62;49.88;96582.69;5021299;28;20021;-29
2023/08/17 01:53:51;;;;;;;4.85;3.60;;;;;;;29.54;49.86;96584.72;5026090;28;20021;-31
2023/08/17 01:56:17;;;;;;;4.03;3.25;;;;;;;29.44;50.07;96583.69;5022384;28;20025;-28
2023/08/17 01:58:43;;;;;;;4.75;3.40;;;;;;;29.63;50.05;96575.81;5022730;28;20026;-29
2023/08/17 02:01:09;;;;;;;3.92;3.00;;;;;;;29.48;50.52;96574.97;5024697;28;20057;-29
2023/08/17 02:03:35;;;;;;;3.50;3.20;;;;;;;29.55;50.16;96568.69;5023578;28;20092;-30
2023/08/17 02:06:01;;;;;;;4.25;3.10;;;;;;;29.54;50.22;96579.13;5025145;28;20044;-29
2023/08/17 02:08:27;;;;;;;4.70;3.50;;;;;;;29.49;50.47;96573.69;5024479;28;20026;-29
2023/08/17 02:10:52;;;;;;;8.52;3.58;;;;;;;29.70;49.40;96582.72;5027951;28;20045;-28
2023/08/17 02:13:18;;;;;;;5.68;3.42;;;;;;;29.53;50.01;96574.09;5027107;28;20026;-29
2023/08/17 02:15:44;;;;;;;4.40;3.20;;;;;;;29.70;49.71;96579.19;5018912;28;20064;-29
2023/08/17 02:18:09;;;;;;;6.32;3.92;;;;;;;29.54;49.73;96573.53;5022589;28;20405;-29
2023/08/17 02:20:35;;;;;;;4.35;3.35;;;;;;;29.55;49.99;96575.00;5031067;28;20018;-28
2023/08/17 02:23:01;;;;;;;4.20;3.80;;;;;;;29.35;50.25;96578.59;5022539;28;20458;-30
2023/08/17 02:25:27;;;;;;;6.35;3.63;;;;;;;29.39;50.48;96579.03;5024327;28;20026;-31
2023/08/17 02:27:53;;;;;;;5.28;3.42;;;;;;;29.60;49.59;96576.91;5025329;28;20081;-30
2023/08/17 02:30:18;;;;;;;4.30;3.30;;;;;;;29.51;49.71;96583.00;5022715;28;20470;-28
2023/08/17 02:32:44;;;;;;;4.53;3.45;;;;;;;29.36;50.11;96579.34;5024268;28;20021;-29
2023/08/17 02:35:10;;;;;;;6.40;3.55;;;;;;;29.54;49.71;96570.75;5023911;28;20474;-29
2023/08/17 02:37:35;;;;;;;4.38;3.22;;;;;;;29.44;49.71;96571.78;5022687;28;20042;-29
2023/08/17 02:40:00;;;;;;;3.80;3.50;;;;;;;29.44;50.01;96572.53;5023707;28;20025;-30
2023/08/17 02:42:26;;;;;;;6.63;3.80;;;;;;;29.41;50.22;96561.72;5020305;28;20462;-29
2023/08/17 02:44:51;;;;;;;5.78;3.40;;;;;;;29.46;50.13;96558.75;5027520;28;20068;-29
2023/08/17 02:47:17;;;;;;;5.88;3.60;;;;;;;29.46;50.10;96566.38;5025310;28;20049;-28
2023/08/17 02:49:42;;;;;;;6.10;3.80;;;;;;;29.49;50.06;96571.63;5028842;28;20052;-31
2023/08/17 02:52:08;;;;;;;6.13;3.70;;;;;;;29.47;50.22;96567.88;5030678;28;20052;-29
2023/08/17 02:54:33;;;;;;;4.32;3.60;;;;;;;29.46;50.21;96558.75;5016097;28;20446;-29
2023/08/17 02:56:59;;;;;;;5.10;4.15;;;;;;;29.41;49.99;96567.31;5023512;28;20025;-29
2023/08/17 02:59:25;;;;;;;7.00;4.03;;;;;;;29.14;50.76;96564.69;5023789;28;20064;-29
2023/08/17 03:01:50;;;;;;;5.85;3.40;;;;;;;29.27;50.35;96569.44;5023572;28;20026;-29
2023/08/17 03:04:16;;;;;;;8.55;3.65;;;;;;;29.35;50.57;96563.88;5022864;28;20017;-28
2023/08/17 03:06:41;;;;;;;4.63;3.30;;;;;;;29.22;50.75;96559.13;5023345;28;20482;-29
2023/08/17 03:09:07;;;;;;;4.53;3.53;;;;;;;29.34;50.25;96560.34;5021318;28;20112;-29
2023/08/17 03:11:32;;;;;;;4.43;3.60;;;;;;;29.34;50.27;96556.78;5018517;28;20026;-29
2023/08/17 03:14:01;;;;;;;9.32;3.35;;;;;;;29.40;49.90;96560.22;5026112;28;20017;-29
2023/08/17 03:16:27;;;;;;;5.25;3.45;;;;;;;29.34;50.28;96565.16;5025395;28;20060;-29
2023/08/17 03:18:53;;;;;;;7.25;3.30;;;;;;;29.30;50.42;96560.69;5025220;28;20025;-29
2023/08/17 03:21:19;;;;;;;6.05;3.65;;;;;;;29.40;50.00;96552.59;5027631;28;20022;-29
2023/08/17 03:23:45;;;;;;;5.25;3.72;;;;;;;29.31;50.45;96558.63;5023077;28;20608;-28
2023/08/17 03:26:10;;;;;;;4.88;3.75;;;;;;;29.27;50.31;96563.84;5019483;28;20116;-29
2023/08/17 03:28:36;;;;;;;4.78;3.63;;;;;;;29.35;50.05;96561.84;5018762;28;20025;-29
2023/08/17 03:31:02;;;;;;;5.15;3.92;;;;;;;29.35;50.18;96572.25;5029993;28;20956;-29
2023/08/17 03:33:29;;;;;;;5.45;3.38;;;;;;;29.22;50.44;96570.31;5027941;28;20491;-28
2023/08/17 03:35:54;;;;;;;4.70;3.42;;;;;;;29.25;50.33;96567.19;5017230;28;20029;-29
2023/08/17 03:38:20;;;;;;;3.88;3.38;;;;;;;29.15;50.59;96565.44;5022485;28;20374;-28
2023/08/17 03:40:47;;;;;;;4.88;3.17;;;;;;;29.13;50.92;96562.44;5022533;28;20018;-30
2023/08/17 03:43:13;;;;;;;4.93;3.47;;;;;;;29.27;50.13;96561.78;5022106;28;20076;-29
2023/08/17 03:45:38;;;;;;;4.68;3.38;;;;;;;29.27;49.97;96566.63;5027571;28;20498;-29
2023/08/17 03:48:06;;;;;;;4.68;3.50;;;;;;;29.37;49.70;96567.63;5017253;28;20386;-30
2023/08/17 03:50:31;;;;;;;3.85;3.15;;;;;;;29.18;50.39;96578.28;5022415;28;20041;-29
2023/08/17 03:52:56;;;;;;;4.85;3.15;;;;;;;29.15;50.50;96571.78;5022009;28;20028;-29
2023/08/17 03:55:22;;;;;;;5.38;3.53;;;;;;;29.02;51.02;96582.28;5023050;28;20550;-29
2023/08/17 03:57:47;;;;;;;4.63;3.38;;;;;;;29.21;50.44;96575.16;5020212;28;20028;-29
2023/08/17 04:00:13;;;;;;;7.40;3.67;;;;;;;29.17;50.62;96580.34;5024944;28;20021;-30
2023/08/17 04:02:39;;;;;;;5.72;3.53;;;;;;;29.22;50.39;96568.25;5022208;28;20378;-30
2023/08/17 04:05:05;;;;;;;7.13;3.88;;;;;;;29.09;50.98;96570.41;5021535;28;20021;-30
2023/08/17 04:07:30;;;;;;;4.50;3.65;;;;;;;29.29;50.21;96578.75;5023393;28;20367;-31
2023/08/17 04:09:55;;;;;;;5.03;3.60;;;;;;;29.24;50.43;96574.06;5021430;28;20494;-29
2023/08/17 04:12:21;;;;;;;6.13;3.80;;;;;;;29.28;50.57;96573.72;5021413;28;20026;-29
2023/08/17 04:14:46;;;;;;;6.65;3.67;;;;;;;29.18;50.78;96570.66;5015059;28;20018;-29
2023/08/17 04:17:12;;;;;;;6.47;3.83;;;;;;;29.26;50.29;96577.06;5022172;28;20045;-31
2023/08/17 04:19:37;;;;;;;6.82;3.65;;;;;;;29.19;50.61;96574.19;5020735;28;20080;-29
2023/08/17 04:22:03;;;;;;;5.95;3.85;;;;;;;29.20;50.48;96572.91;5021534;28;20029;-29
2023/08/17 04:24:29;;;;;;;4.65;3.55;;;;;;;29.19;50.67;96571.41;5021451;28;20541;-29
2023/08/17 04:26:54;;;;;;;6.32;3.65;;;;;;;29.17;50.77;96574.00;5021385;28;20036;-30
2023/08/17 04:29:20;;;;;;;4.13;3.35;;;;;;;29.27;49.95;96580.59;5019095;28;20091;-29
2023/08/17 04:31:45;;;;;;;5.05;3.20;;;;;;;29.11;50.67;96576.94;5024051;28;20095;-29
2023/08/17 04:34:11;;;;;;;6.55;3.38;;;;;;;29.27;50.01;96577.81;5017670;28;20028;-29
2023/08/17 04:36:37;;;;;;;6.45;3.58;;;;;;;29.10;50.37;96574.69;5025573;28;20018;-29
2023/08/17 04:39:04;;;;;;;4.47;3.55;;;;;;;29.24;49.94;96588.03;5028687;28;20028;-29
2023/08/17 04:41:30;;;;;;;3.70;3.30;;;;;;;29.32;49.69;96574.09;5018940;28;20033;-31
2023/08/17 04:43:55;;;;;;;5.50;3.28;;;;;;;29.19;50.03;96579.78;5017115;28;20026;-29
2023/08/17 04:46:21;;;;;;;5.03;3.25;;;;;;;29.18;50.00;96578.28;5024199;28;20020;-30
2023/08/17 04:48:46;;;;;;;4.28;3.13;;;;;;;29.32;49.50;96574.09;5018956;28;20347;-29
2023/08/17 04:51:12;;;;;;;6.07;3.40;;;;;;;29.03;50.49;96569.81;5028672;28;20033;-29
2023/08/17 04:53:37;;;;;;;5.25;3.53;;;;;;;29.10;50.10;96564.28;5012777;28;20036;-30
2023/08/17 04:56:04;;;;;;;4.85;3.42;;;;;;;29.23;49.83;96577.41;5021194;28;20518;-29
2023/08/17 04:58:29;;;;;;;5.18;3.53;;;;;;;29.11;49.99;96579.75;5023709;28;20105;-29
2023/08/17 05:00:55;;;;;;;3.70;2.90;;;;;;;29.12;49.75;96572.84;5024550;28;20055;-30
2023/08/17 05:03:20;;;;;;;5.40;3.22;;;;;;;29.24;49.82;96576.84;5022566;28;20052;-29
2023/08/17 05:05:46;;;;;;;9.88;3.45;;;;;;;29.10;50.07;96583.06;5020865;28;20109;-29
2023/08/17 05:08:11;;;;;;;4.40;3.45;;;;;;;29.12;49.73;96581.22;5020035;28;20025;-30
2023/08/17 05:10:36;;;;;;;7.30;3.45;;;;;;;29.22;49.66;96578.69;5016667;28;20034;-29
2023/08/17 05:13:02;;;;;;;7.32;3.55;;;;;;;29.11;50.10;96581.78;5019901;28;20018;-29
2023/08/17 05:15:28;;;;;;;5.95;3.97;;;;;;;29.29;49.58;96587.13;5027938;28;20021;-29
2023/08/17 05:17:53;;;;;;;8.50;3.67;;;;;;;29.14;50.00;96581.44;5020498;28;20014;-30
2023/08/17 05:20:20;;;;;;;4.70;3.67;;;;;;;29.17;49.54;96582.41;5026699;28;20032;-28
2023/08/17 05:22:46;;;;;;;4.35;3.35;;;;;;;29.23;49.83;96586.53;5021168;28;20017;-29
2023/08/17 05:25:12;;;;;;;4.70;3.50;;;;;;;29.27;49.39;96600.16;5024881;28;20021;-28
2023/08/17 05:27:37;;;;;;;6.15;3.58;;;;;;;29.25;49.63;96597.16;5023687;28;20036;-30
2023/08/17 05:30:03;;;;;;;4.97;3.70;;;;;;;29.31;49.38;96594.94;5023769;28;20045;-29
2023/08/17 05:32:28;;;;;;;6.60;3.72;;;;;;;29.20;49.59;96609.22;5023592;28;20033;-28
2023/08/17 05:34:54;;;;;;;5.75;3.83;;;;;;;29.25;49.41;96599.94;5022791;28;20018;-28
2023/08/17 05:37:19;;;;;;;6.03;3.70;;;;;;;29.24;49.39;96596.41;5023740;28;20017;-29
2023/08/17 05:39:45;;;;;;;6.50;4.60;;;;;;;29.27;49.28;96600.91;5024464;28;20053;-30
2023/08/17 05:42:10;;;;;;;7.43;3.92;;;;;;;29.41;49.46;96606.41;5019963;28;20112;-28
2023/08/17 05:44:36;;;;;;;5.57;4.25;;;;;;;29.13;49.82;96609.91;5020381;28;20026;-28
2023/08/17 05:47:01;;;;;;;5.82;3.97;;;;;;;29.33;49.68;96611.16;5020532;28;20033;-30
2023/08/17 05:49:27;;;;;;;8.05;4.35;;;;;;;29.23;49.76;96613.72;5027735;28;20405;-28
2023/08/17 05:51:52;;;;;;;4.93;3.88;;;;;;;29.31;49.56;96622.88;5013274;28;20041;-31
2023/08/17 05:54:18;;;;;;;6.68;4.10;;;;;;;29.37;49.56;96619.94;5020800;28;20056;-28
2023/08/17 05:56:46;;;;;;;7.57;3.38;;;;;;;29.34;49.49;96616.19;5013890;28;20022;-28
2023/08/17 05:59:12;;;;;;;4.93;4.00;;;;;;;29.31;49.44;96618.03;5020366;28;20127;-28
2023/08/17 06:01:38;;;;;;;6.35;3.47;;;;;;;29.48;48.80;96614.84;5023168;28;20029;-29
2023/08/17 06:04:04;;;;;;;8.13;3.97;;;;;;;29.28;49.38;96612.81;5023648;28;20017;-28
2023/08/17 06:06:30;;;;;;;7.35;3.47;;;;;;;29.24;49.03;96618.00;5014826;28;20084;-28
2023/08/17 06:08:55;;;;;;;4.70;3.40;;;;;;;29.35;48.97;96611.38;5019740;28;20386;-29
2023/08/17 06:11:21;;;;;;;8.45;4.05;;;;;;;29.64;48.25;96613.66;5019916;28;20036;-30
2023/08/17 06:13:46;;;;;;;6.57;3.92;;;;;;;29.58;48.42;96603.91;5026336;28;20014;-28
2023/08/17 06:16:12;;;;;;;9.90;3.72;;;;;;;29.44;48.41;96606.06;5018409;28;20045;-28
2023/08/17 06:18:39;;;;;;;9.45;3.70;;;;;;;29.54;47.98;96604.28;5021720;28;20025;-30
2023/08/17 06:21:04;;;;;;;5.55;3.40;;;;;;;29.62;48.07;96599.47;5016481;28;20079;-29
2023/08/17 06:23:30;;;;;;;6.75;3.42;;;;;;;29.50;48.52;96606.66;5023699;28;20013;-28
2023/08/17 06:25:59;;;;;;;4.05;3.22;;;;;;;29.61;48.07;96600.00;5014775;28;20469;-28
2023/08/17 06:28:25;;;;;;;5.00;4.35;;;;;;;29.64;47.66;96599.66;5017209;28;20359;-30
2023/08/17 06:30:55;;;;;;;5.03;3.78;;;;;;;29.54;48.30;96612.66;5026983;28;20535;-29
2023/08/17 06:33:21;;;;;;;5.70;3.30;;;;;;;29.80;47.62;96605.31;5012840;28;20026;-28
2023/08/17 06:35:48;;;;;;;5.03;3.58;;;;;;;29.59;48.66;96608.94;5020671;28;20075;-28
2023/08/17 06:38:13;;;;;;;7.85;3.83;;;;;;;29.46;48.48;96611.09;5019879;28;20057;-29
2023/08/17 06:40:39;;;;;;;6.68;3.50;;;;;;;29.48;48.49;96602.91;5026092;28;20056;-28
2023/08/17 06:43:04;;;;;;;6.25;3.42;;;;;;;29.63;47.97;96603.75;5015848;28;20021;-28
2023/08/17 06:45:32;;;;;;;5.00;4.00;;;;;;;29.60;47.90;96604.09;5023118;28;20044;-28
2023/08/17 06:47:57;;;;;;;7.32;3.83;;;;;;;29.58;48.00;96601.84;5023227;28;20036;-30
2023/08/17 06:50:23;;;;;;;4.90;3.92;;;;;;;29.56;47.89;96604.44;5024030;28;20045;-28
2023/08/17 06:52:48;;;;;;;4.53;3.83;;;;;;;29.61;47.72;96603.56;5021891;28;20028;-29
2023/08/17 06:55:15;;;;;;;6.63;4.00;;;;;;;29.50;47.89;96611.50;5025028;28;20386;-28
2023/08/17 06:57:41;;;;;;;4.60;3.90;;;;;;;29.67;47.71;96608.25;5019805;28;20051;-28
2023/08/17 07:00:07;;;;;;;8.55;4.45;;;;;;;29.71;47.49;96605.84;5027227;28;20517;-29
2023/08/17 07:02:34;;;;;;;6.00;4.13;;;;;;;29.65;47.76;96601.16;5018379;28;20018;-28
2023/08/17 07:05:00;;;;;;;6.18;3.90;;;;;;;29.69;47.89;96609.19;5026470;28;20031;-29
2023/08/17 07:07:25;;;;;;;8.23;4.35;;;;;;;29.76;47.43;96605.69;5024916;28;20440;-29
2023/08/17 07:09:50;;;;;;;5.38;3.90;;;;;;;29.71;47.32;96609.38;5015843;28;20037;-28
2023/08/17 07:12:16;;;;;;;6.15;4.55;;;;;;;29.84;46.95;96602.91;5023784;28;20025;-28
2023/08/17 07:14:41;;;;;;;6.72;4.57;;;;;;;29.82;47.03;96602.72;5022802;28;20046;-28
2023/08/17 07:17:07;;;;;;;5.82;4.40;;;;;;;29.89;46.96;96610.41;5022908;28;20026;-28
2023/08/17 07:19:32;;;;;;;5.75;4.60;;;;;;;29.75;46.97;96614.63;5022753;28;20018;-29
2023/08/17 07:21:58;;;;;;;6.15;4.68;;;;;;;29.96;47.04;96601.34;5023281;28;20022;-28
2023/08/17 07:24:23;;;;;;;5.18;4.10;;;;;;;29.90;46.86;96609.13;5022793;28;20382;-29
2023/08/17 07:26:49;;;;;;;9.20;4.85;;;;;;;29.76;47.76;96613.31;5015204;28;20026;-28
2023/08/17 07:29:14;;;;;;;6.00;4.60;;;;;;;29.84;47.68;96611.31;5029387;28;20072;-28
2023/08/17 07:31:40;;;;;;;6.38;4.65;;;;;;;30.09;46.64;96604.00;5022917;28;20103;-29
2023/08/17 07:34:06;;;;;;;8.13;4.45;;;;;;;29.93;47.09;96616.38;5017754;28;20021;-29
2023/08/17 07:36:33;;;;;;;6.70;4.88;;;;;;;30.00;46.71;96618.50;5026141;28;20437;-29
2023/08/17 07:38:59;;;;;;;6.57;4.68;;;;;;;30.03;47.20;96617.41;5023327;28;20452;-29
2023/08/17 07:41:24;;;;;;;7.43;4.70;;;;;;;30.06;46.91;96607.88;5021504;28;20108;-28
2023/08/17 07:43:50;;;;;;;4.95;4.05;;;;;;;30.17;46.47;96612.41;5029499;28;20022;-29
2023/08/17 07:46:15;;;;;;;4.90;4.47;;;;;;;30.09;46.38;96615.19;5015503;28;20022;-28
2023/08/17 07:48:41;;;;;;;5.20;4.70;;;;;;;30.01;46.84;96617.22;5027453;28;20029;-28
2023/08/17 07:51:06;;;;;;;7.50;4.75;;;;;;;30.18;46.48;96611.84;5023282;28;20045;-28
2023/08/17 07:53:32;;;;;;;5.25;4.75;;;;;;;30.15;46.37;96612.22;5020740;28;20473;-29
2023/08/17 07:55:57;;;;;;;5.63;4.30;;;;;;;30.13;46.13;96614.81;5014600;28;20021;-28
2023/08/17 07:58:23;;;;;;;5.28;4.38;;;;;;;30.29;45.81;96619.91;5022265;28;20013;-28
2023/08/17 08:01:01;;;;;;;6.68;4.80;;;;;;;30.22;46.11;96620.63;5013563;28;20092;-30
2023/08/17 08:03:26;;;;;;;5.03;4.45;;;;;;;30.21;45.85;96624.75;5023168;28;20116;-28
2023/08/17 08:05:52;;;;;;;7.25;4.70;;;;;;;30.31;45.57;96617.31;5025639;28;20113;-28
2023/08/17 08:08:19;;;;;;;5.95;5.32;;;;;;;30.18;45.67;96617.44;5016580;28;20113;-29
2023/08/17 08:10:45;;;;;;;7.07;5.28;;;;;;;30.25;46.19;96619.53;5024886;28;20034;-29
2023/08/17 08:13:11;;;;;;;6.05;5.22;;;;;;;30.36;45.29;96618.44;5025260;28;20051;-29
2023/08/17 08:15:36;;;;;;;5.50;4.80;;;;;;;30.32;45.26;96618.81;5017168;28;20101;-30
2023/08/17 08:18:02;;;;;;;9.00;5.22;;;;;;;30.12;45.71;96619.69;5021277;28;20017;-30
2023/08/17 08:20:27;;;;;;;6.47;5.40;;;;;;;30.31;45.79;96625.69;5029032;28;20024;-28
2023/08/17 08:22:53;;;;;;;5.97;4.30;;;;;;;30.23;46.03;96624.94;5022339;28;20021;-29
2023/08/17 08:25:18;;;;;;;5.50;4.55;;;;;;;30.13;46.64;96620.44;5026851;28;20158;-29
2023/08/17 08:27:44;;;;;;;7.53;4.80;;;;;;;30.27;46.57;96625.34;5022105;28;20370;-28
2023/08/17 08:30:09;;;;;;;6.00;4.63;;;;;;;30.29;46.01;96633.91;5021648;28;20013;-28
2023/08/17 08:32:35;;;;;;;5.53;5.03;;;;;;;30.38;46.20;96626.28;5020956;28;20080;-28
2023/08/17 08:35:00;;;;;;;5.57;4.68;;;;;;;30.45;45.47;96625.56;5022369;28;20085;-28
2023/08/17 08:37:26;;;;;;;7.13;5.00;;;;;;;30.36;45.71;96627.59;5021579;28;20010;-29
2023/08/17 08:39:53;;;;;;;6.13;5.28;;;;;;;30.36;45.77;96627.59;5021421;28;20032;-29
2023/08/17 08:42:19;;;;;;;6.25;5.45;;;;;;;30.35;45.61;96634.50;5021069;28;20472;-29
2023/08/17 08:44:46;;;;;;;5.75;5.10;;;;;;;30.46;45.74;96632.66;5014234;28;20044;-28
2023/08/17 08:47:12;;;;;;;6.78;4.80;;;;;;;30.45;45.28;96634.69;5021605;28;20034;-29
2023/08/17 08:49:58;;;;;;;8.30;5.72;;;;;;;30.36;46.07;96624.78;5017282;28;20053;-28
2023/08/17 08:52:32;;;;;;;6.70;5.57;;;;;;;30.33;45.82;96628.69;5024185;28;20022;-29
2023/08/17 08:54:59;;;;;;;6.45;5.85;;;;;;;30.39;45.39;96639.72;5024813;28;20367;-28
2023/08/17 08:57:28;;;;;;;7.90;6.10;;;;;;;30.52;44.48;96638.84;5028116;28;20076;-30
2023/08/17 08:59:54;;;;;;;6.65;5.93;;;;;;;30.40;44.54;96637.69;5020777;28;20026;-28
2023/08/17 09:02:19;;;;;;;6.97;6.15;;;;;;;30.50;44.44;96635.84;5014035;28;20037;-28
2023/08/17 09:04:45;;;;;;;6.30;5.68;;;;;;;30.35;44.56;96634.50;5024609;28;20027;-28
2023/08/17 09:07:13;;;;;;;6.32;5.80;;;;;;;30.48;44.46;96635.66;5023740;28;20087;-28
2023/08/17 09:09:39;;;;;;;7.60;6.30;;;;;;;30.53;44.17;96631.94;5021236;28;20556;-28
2023/08/17 09:12:08;;;;;;;6.93;6.10;;;;;;;30.39;44.54;96631.34;5020756;28;20022;-28
2023/08/17 09:14:33;;;;;;;7.75;6.32;;;;;;;30.50;43.77;96630.25;5020834;28;20104;-29
2023/08/17 09:16:59;;;;;;;7.15;5.95;;;;;;;30.51;43.74;96624.09;5021403;28;20089;-28
2023/08/17 09:19:24;;;;;;;6.85;6.25;;;;;;;30.49;44.20;96631.53;5020297;28;20024;-28
2023/08/17 09:21:50;;;;;;;6.75;6.20;;;;;;;30.52;43.86;96624.84;5020878;28;20021;-28
2023/08/17 09:24:15;;;;;;;8.20;6.72;;;;;;;30.56;43.59;96619.63;5020645;28;20057;-28
2023/08/17 09:26:41;;;;;;;7.20;5.72;;;;;;;30.61;43.74;96613.13;5020656;28;20029;-28
2023/08/17 09:29:20;;;;;;;6.45;5.88;;;;;;;30.45;43.71;96617.91;5011813;28;20033;-28
2023/08/17 09:31:48;;;;;;;7.43;6.07;;;;;;;30.53;43.88;96615.16;5020986;28;20025;-29
2023/08/17 09:34:19;;;;;;;6.28;5.68;;;;;;;30.44;44.17;96610.81;5020519;28;20032;-29
2023/08/17 09:36:47;;;;;;;7.20;6.50;;;;;;;30.62;43.59;96609.03;5020929;28;20113;-28
2023/08/17 09:39:16;;;;;;;6.32;5.78;;;;;;;30.59;43.92;96602.47;5016680;28;20026;-28
2023/08/17 09:41:42;;;;;;;7.10;6.40;;;;;;;30.65;43.92;96599.53;5024636;28;20025;-29
2023/08/17 09:44:09;;;;;;;6.55;5.82;;;;;;;30.58;43.61;96591.84;5021658;28;20017;-28
2023/08/17 09:46:35;;;;;;;9.73;6.35;;;;;;;30.67;43.69;96594.09;5019744;28;20072;-28
2023/08/17 09:49:04;;;;;;;7.00;6.35;;;;;;;30.56;43.41;96595.19;5027702;28;20029;-30
2023/08/17 09:51:30;;;;;;;8.60;6.20;;;;;;;30.59;43.89;96593.34;5013282;28;20022;-29
2023/08/17 09:53:57;;;;;;;6.93;6.13;;;;;;;30.50;43.56;96588.25;5020762;28;20053;-30
2023/08/17 09:56:24;;;;;;;7.55;6.80;;;;;;;30.61;44.11;96585.13;5020245;28;20022;-30
2023/08/17 09:58:50;;;;;;;7.30;6.15;;;;;;;30.60;43.89;96580.84;5025452;28;20374;-29
2023/08/17 10:01:17;;;;;;;7.13;6.20;;;;;;;30.65;43.80;96585.53;5014339;28;20079;-29
2023/08/17 10:03:47;;;;;;;7.80;6.43;;;;;;;30.60;43.70;96583.63;5013928;28;20026;-28
2023/08/17 10:06:17;;;;;;;6.88;6.18;;;;;;;30.64;43.15;96581.22;5020262;28;20052;-28
2023/08/17 10:08:45;;;;;;;6.90;6.30;;;;;;;30.65;43.29;96579.94;5020826;28;20478;-29
2023/08/17 10:11:12;;;;;;;7.13;6.53;;;;;;;30.69;43.30;96578.22;5019419;28;20466;-28
2023/08/17 10:13:52;;;;;;;8.43;6.45;;;;;;;30.62;43.40;96576.19;5015403;28;20022;-28
2023/08/17 10:16:28;;;;;;;10.60;6.55;;;;;;;30.69;43.53;96575.44;5024894;28;20038;-29
2023/08/17 10:19:14;;;;;;;7.22;6.13;;;;;;;30.75;43.04;96566.13;5025365;28;20107;-28
2023/08/17 10:21:46;;;;;;;6.70;6.07;;;;;;;30.78;43.41;96573.41;5014946;28;20037;-29
2023/08/17 10:24:12;;;;;;;7.93;6.57;;;;;;;30.72;43.00;96573.56;5027027;28;20013;-29
2023/08/17 10:26:39;;;;;;;8.75;7.20;;;;;;;30.77;43.10;96571.91;5026591;28;20536;-30
2023/08/17 10:29:05;;;;;;;7.05;5.85;;;;;;;30.78;43.09;96576.94;5024412;28;20117;-29
2023/08/17 10:31:35;;;;;;;9.07;6.05;;;;;;;30.75;43.21;96569.66;5022551;28;20036;-30
2023/08/17 10:34:02;;;;;;;8.48;6.15;;;;;;;30.79;42.90;96572.06;5025397;28;20026;-28
2023/08/17 10:36:30;;;;;;;6.47;5.68;;;;;;;30.84;42.85;96574.69;5022054;28;20037;-28
2023/08/17 10:39:26;;;;;;;6.65;6.10;;;;;;;30.81;42.90;96564.59;5031035;28;20025;-28
2023/08/17 10:41:52;;;;;;;6.60;6.00;;;;;;;30.88;42.73;96563.88;5023671;28;20077;-28
2023/08/17 10:44:37;;;;;;;8.63;6.13;;;;;;;30.92;42.71;96564.22;5019464;28;20438;-30
2023/08/17 10:47:25;;;;;;;6.50;6.00;;;;;;;30.85;43.09;96567.03;5025407;28;20520;-28
2023/08/17 10:50:24;;;;;;;6.90;6.18;;;;;;;30.91;42.95;96567.63;5016237;28;20076;-29
2023/08/17 10:52:53;;;;;;;7.45;6.63;;;;;;;30.91;42.70;96559.94;5016482;28;20037;-28
2023/08/17 10:55:39;;;;;;;8.77;6.97;;;;;;;30.91;42.60;96559.94;5023755;28;20021;-29
2023/08/17 10:58:05;;;;;;;7.13;6.50;;;;;;;30.93;42.53;96562.94;5023603;28;20021;-28
2023/08/17 11:00:36;;;;;;;10.05;6.00;;;;;;;30.96;42.68;96561.81;5024953;28;20030;-29
2023/08/17 11:03:06;;;;;;;7.55;6.80;;;;;;;31.02;42.39;96559.59;5026384;28;20455;-28
2023/08/17 11:05:43;;;;;;;6.88;6.28;;;;;;;30.97;42.72;96566.13;5025061;28;20492;-28
2023/08/17 11:08:21;;;;;;;8.57;7.28;;;;;;;31.04;42.59;96559.00;5026456;28;20500;-29
2023/08/17 11:10:58;;;;;;;7.20;6.20;;;;;;;31.08;41.82;96550.97;5026137;28;20481;-28
2023/08/17 11:13:26;;;;;;;8.75;6.47;;;;;;;31.08;42.24;96548.19;5026091;28;20485;-28
2023/08/17 11:15:52;;;;;;;10.85;6.38;;;;;;;31.07;42.50;96541.81;5030584;28;20026;-28
2023/08/17 11:18:17;;;;;;;7.28;6.57;;;;;;;31.13;41.94;96540.94;5023244;28;20013;-29
2023/08/17 11:20:43;;;;;;;8.65;6.78;;;;;;;31.13;41.32;96544.47;5016619;28;20018;-28
2023/08/17 11:23:09;;;;;;;8.20;7.30;;;;;;;31.16;41.33;96542.59;5026448;28;20100;-28
2023/08/17 11:25:36;;;;;;;8.27;6.35;;;;;;;31.15;41.64;96547.47;5018976;28;20108;-29
2023/08/17 11:28:02;;;;;;;7.10;6.50;;;;;;;31.12;41.02;96537.38;5022446;28;20064;-30
2023/08/17 11:30:29;;;;;;;6.45;5.85;;;;;;;31.17;40.66;96542.03;5028213;28;20104;-28
2023/08/17 11:32:56;;;;;;;6.70;6.20;;;;;;;31.23;40.98;96541.84;5016698;28;20025;-29
2023/08/17 11:35:22;;;;;;;6.63;5.90;;;;;;;31.13;40.61;96544.47;5022888;28;20037;-28